Sunday, October 21, 2018, 1:55 AM EDT
Back to Local

KORE, Orange, Orange Municipal Airport

Location: Orange, MA, United States Lat: 42.572
Local Time: 1:55 AM EDT ( 5:55 GMT) Lon: -72.278
Time Zone: US/Eastern Elev: 554 ft

Show me the last for .
Show Decoded

2018-10-21 00:52 METAR KORE 210452Z AUTO 21003KT 10SM OVC070 08/06 A2960 RMK AO2 SLP025 T00780061
                 401610072 =
2018-10-20 23:52 METAR KORE 210352Z AUTO 00000KT 10SM OVC085 08/06 A2960 RMK AO2 SLP025 T00780061
                 =
2018-10-20 22:52 METAR KORE 210252Z AUTO 00000KT 10SM OVC080 08/06 A2960 RMK AO2 SLP024 T00830061
                 50001 =
2018-10-20 21:52 METAR KORE 210152Z AUTO 00000KT 10SM OVC090 08/06 A2960 RMK AO2 SLP027 T00780056
                 =
2018-10-20 20:52 METAR KORE 210052Z AUTO 00000KT 10SM OVC090 08/06 A2960 RMK AO2 SLP024 T00780056
                 =
2018-10-20 19:52 METAR KORE 202352Z AUTO 23003KT 10SM CLR 08/06 A2960 RMK AO2 SLP024 60000
                 T00780056 10156 20072 53006 =
2018-10-20 18:52 METAR KORE 202252Z AUTO 15003KT 10SM CLR 09/06 A2959 RMK AO2 SLP023 T00940061 =
2018-10-20 17:52 METAR KORE 202152Z AUTO 22006KT 10SM OVC100 13/07 A2957 RMK AO2 SLP014 T01280067
                 =
2018-10-20 16:52 METAR KORE 202052Z AUTO 22005KT 10SM SCT085 14/06 A2958 RMK AO2 SLP017 60000
                 T01440061 56009 =
2018-10-20 15:52 METAR KORE 201952Z AUTO 28009G14KT 10SM FEW040 SCT070 BKN085 15/06 A2958 RMK AO2
                 RAE06 SLP018 P0000 T01500056 =
2018-10-20 14:52 METAR KORE 201852Z AUTO 31005KT 10SM -RA SCT038 BKN047 OVC060 14/06 A2959 RMK
                 AO2 RAB50 SLP022 P0000 T01440056 =
2018-10-20 13:52 METAR KORE 201752Z AUTO 24013KT 10SM SCT040 BKN048 OVC055 16/06 A2960 RMK AO2
                 SLP025 T01560056 10161 20111 58016 =
2018-10-20 12:52 METAR KORE 201652Z AUTO 24010KT 10SM FEW040 OVC055 15/06 A2962 RMK AO2 SLP031
                 T01500061 =
2018-10-20 11:52 METAR KORE 201552Z AUTO 23010G18KT 10SM SCT033 OVC046 15/07 A2963 RMK AO2 SLP036
                 T01500067 =
2018-10-20 10:52 METAR KORE 201452Z AUTO 22013G19KT 10SM BKN041 OVC060 14/08 A2965 RMK AO2 SLP042
                 T01440078 58005 =
2018-10-20 09:52 METAR KORE 201352Z AUTO 21012G19KT 10SM FEW022 OVC039 13/08 A2966 RMK AO2 SLP045
                 T01280078 =
2018-10-20 09:07 METAR KORE 201307Z AUTO 19011G18KT 10SM FEW018 BKN045 OVC060 12/08 A2966 RMK AO2
                 T01220078 =
2018-10-20 08:52 METAR KORE 201252Z AUTO 19008KT 10SM FEW019 BKN026 OVC046 12/08 A2967 RMK AO2
                 SLP047 T01170078 =
2018-10-20 08:30 METAR KORE 201230Z AUTO 18009KT 10SM FEW017 BKN028 OVC038 12/08 A2967 RMK AO2
                 T01170078 =
2018-10-20 07:52 METAR KORE 201152Z AUTO 20009KT 10SM FEW019 FEW028 OVC044 12/08 A2967 RMK AO2
                 SLP047 60000 T01170078 10122 20106 56003 =
2018-10-20 06:52 METAR KORE 201052Z AUTO 19010KT 10SM BKN021 OVC060 11/07 A2965 RMK AO2 SLP044
                 T01110072 =
2018-10-20 06:31 METAR KORE 201031Z AUTO 20010G18KT 10SM BKN022 OVC065 12/07 A2966 RMK AO2
                 T01170067 =
2018-10-20 05:52 METAR KORE 200952Z AUTO 19011G15KT 10SM OVC060 12/06 A2968 RMK AO2 SLP050
                 T01170061 =
2018-10-20 04:52 METAR KORE 200852Z AUTO 19008KT 10SM OVC070 11/06 A2968 RMK AO2 RAE31 SLP052
                 P0000 60000 T01110061 58034 =
2018-10-20 03:52 METAR KORE 200752Z AUTO 19009KT 10SM -RA FEW065 OVC080 11/06 A2972 RMK AO2 PK
                 WND 20028/0714 RAB34 SLP064 P0000 T01110061 =
2018-10-20 02:52 METAR KORE 200652Z AUTO 20013G24KT 10SM BKN110 12/05 A2975 RMK AO2 SLP075
                 T01170050 =

Support USWX by starting your Amazon purchase here.